createdAt,value
2019-02-27T00:02:24.307Z,66.70
2019-02-27T00:04:52.666Z,65.90
2019-02-27T00:07:21.502Z,66.90
2019-02-27T00:09:49.765Z,67.10
2019-02-27T00:12:19.342Z,66.70
2019-02-27T00:14:48.894Z,66.20
2019-02-27T00:17:18.099Z,66.50
2019-02-27T00:19:47.165Z,66.90
2019-02-27T00:22:17.636Z,67.50
2019-02-27T00:24:45.667Z,68.40
2019-02-27T00:27:14.799Z,68.30
2019-02-27T00:29:43.478Z,67.60
2019-02-27T00:32:11.787Z,67.50
2019-02-27T00:34:39.989Z,67.80
2019-02-27T00:37:09.461Z,69.10
2019-02-27T00:39:37.528Z,70.60
2019-02-27T00:42:05.626Z,70.70
2019-02-27T00:44:34.961Z,68.70
2019-02-27T00:47:03.040Z,67.70
2019-02-27T00:49:32.354Z,67.90
2019-02-27T00:52:01.045Z,68.70
2019-02-27T00:54:31.449Z,69.90
2019-02-27T00:57:08.000Z,71.50
2019-02-27T00:59:36.675Z,72.60
2019-02-27T01:02:04.997Z,73.10
2019-02-27T01:04:35.116Z,72.70
2019-02-27T01:07:04.230Z,72.20
2019-02-27T01:09:32.458Z,71.20
2019-02-27T01:12:00.912Z,71.40
2019-02-27T01:14:29.198Z,71.50
2019-02-27T01:16:57.355Z,71.40
2019-02-27T01:19:25.421Z,70.20
2019-02-27T01:21:53.461Z,70.20
2019-02-27T01:24:21.451Z,69.40
2019-02-27T01:26:49.596Z,68.30
2019-02-27T01:29:18.133Z,67.90
2019-02-27T01:31:47.386Z,68.10
2019-02-27T01:34:15.578Z,68.80
2019-02-27T01:36:44.666Z,68.60
2019-02-27T01:39:12.918Z,68.20
2019-02-27T01:41:41.112Z,69.00
2019-02-27T01:44:11.157Z,69.00
2019-02-27T01:46:39.387Z,69.80
2019-02-27T01:49:07.395Z,69.70
2019-02-27T01:51:35.386Z,69.90
2019-02-27T01:54:03.830Z,70.80
2019-02-27T01:56:32.010Z,71.10
2019-02-27T01:59:00.379Z,71.60
2019-02-27T02:01:30.288Z,70.90
2019-02-27T02:03:58.774Z,70.80
2019-02-27T02:06:26.755Z,70.30
2019-02-27T02:09:30.452Z,69.30
2019-02-27T02:11:58.858Z,68.70
2019-02-27T02:15:01.105Z,67.40
2019-02-27T02:18:41.392Z,68.30
2019-02-27T02:22:00.685Z,69.50
2019-02-27T02:25:34.146Z,69.40
2019-02-27T02:29:30.048Z,69.90
2019-02-27T02:32:57.095Z,72.30
2019-02-27T02:36:30.756Z,73.10
2019-02-27T02:39:35.971Z,74.30
2019-02-27T02:42:51.915Z,74.50
2019-02-27T02:45:39.340Z,72.90
2019-02-27T02:49:24.735Z,72.70
2019-02-27T02:52:44.347Z,72.20
2019-02-27T02:55:25.392Z,72.70
2019-02-27T02:58:37.492Z,72.70
2019-02-27T03:01:45.673Z,72.40
2019-02-27T03:05:01.132Z,71.30
2019-02-27T03:08:05.040Z,71.20
2019-02-27T03:11:36.335Z,69.90
2019-02-27T03:14:54.178Z,70.30
2019-02-27T03:18:15.334Z,71.00
2019-02-27T03:22:11.445Z,73.30
2019-02-27T03:25:55.670Z,74.60
2019-02-27T03:29:42.671Z,75.70
2019-02-27T03:32:43.197Z,77.00
2019-02-27T03:36:04.571Z,77.00
2019-02-27T03:39:48.345Z,76.40
2019-02-27T03:42:51.261Z,75.80
2019-02-27T03:45:36.857Z,75.10
2019-02-27T03:48:52.315Z,75.70
2019-02-27T03:52:20.660Z,76.10
2019-02-27T03:55:42.480Z,77.10
2019-02-27T03:58:33.389Z,78.70
2019-02-27T04:01:32.019Z,79.90
2019-02-27T04:04:51.123Z,80.60
2019-02-27T04:08:16.483Z,80.60
2019-02-27T04:10:44.633Z,79.70
2019-02-27T04:13:12.586Z,79.10
2019-02-27T04:15:40.656Z,78.40
2019-02-27T04:18:07.088Z,77.40
2019-02-27T04:20:35.111Z,77.50
2019-02-27T04:23:03.201Z,76.40
2019-02-27T04:25:32.275Z,76.80
2019-02-27T04:28:00.294Z,76.30
2019-02-27T04:30:28.296Z,76.60
2019-02-27T04:32:56.244Z,76.30
2019-02-27T04:35:24.165Z,76.70
2019-02-27T04:37:54.310Z,76.10
2019-02-27T04:40:22.107Z,75.90
2019-02-27T04:42:50.054Z,75.60
2019-02-27T04:45:18.175Z,76.20
2019-02-27T04:47:46.148Z,75.60
2019-02-27T04:50:14.290Z,75.30
2019-02-27T04:52:42.208Z,74.50
2019-02-27T04:55:10.211Z,76.30
2019-02-27T04:57:38.081Z,75.60
2019-02-27T05:00:06.994Z,76.10
2019-02-27T05:02:35.220Z,76.90
2019-02-27T05:05:06.193Z,77.30
2019-02-27T05:07:33.361Z,76.60
2019-02-27T05:10:01.384Z,75.70
2019-02-27T05:12:29.371Z,76.00
2019-02-27T05:14:57.363Z,75.80
2019-02-27T05:17:25.288Z,75.90
2019-02-27T05:19:53.246Z,75.00
2019-02-27T05:22:21.261Z,76.20
2019-02-27T05:24:49.320Z,76.90
2019-02-27T05:27:17.301Z,77.20
2019-02-27T05:29:45.162Z,76.90
2019-02-27T05:32:13.365Z,75.90
2019-02-27T05:34:41.299Z,75.80
2019-02-27T05:37:12.847Z,75.10
2019-02-27T05:39:40.751Z,74.90
2019-02-27T05:42:08.767Z,76.30
2019-02-27T05:44:36.664Z,76.60
2019-02-27T05:47:04.620Z,77.20
2019-02-27T05:49:32.572Z,77.50
2019-02-27T05:52:00.430Z,78.10
2019-02-27T05:54:30.020Z,77.90
2019-02-27T05:57:00.171Z,78.30
2019-02-27T05:59:29.460Z,78.40
2019-02-27T06:01:57.833Z,78.40
2019-02-27T06:04:25.894Z,77.90
2019-02-27T06:06:53.905Z,78.30
2019-02-27T06:09:22.022Z,78.50
2019-02-27T06:11:49.931Z,78.40
2019-02-27T06:14:21.167Z,79.10
2019-02-27T06:16:47.839Z,78.90
2019-02-27T06:19:15.965Z,78.30
2019-02-27T06:21:43.855Z,78.30
2019-02-27T06:24:12.819Z,78.90
2019-02-27T06:26:40.841Z,78.80
2019-02-27T06:29:08.705Z,78.30
2019-02-27T06:31:39.320Z,78.50
2019-02-27T06:34:06.879Z,77.30
2019-02-27T06:36:34.752Z,77.70
2019-02-27T06:39:03.460Z,77.60
2019-02-27T06:41:33.314Z,76.90
2019-02-27T06:44:01.490Z,77.50
2019-02-27T06:46:30.067Z,77.50
2019-02-27T06:48:58.143Z,78.00
2019-02-27T06:51:26.296Z,77.50
2019-02-27T06:53:54.434Z,77.80
2019-02-27T06:56:22.344Z,77.50
2019-02-27T06:58:50.744Z,77.10
2019-02-27T07:01:19.640Z,76.70
2019-02-27T07:03:47.637Z,76.00
2019-02-27T07:06:15.603Z,75.40
2019-02-27T07:08:43.605Z,74.70
2019-02-27T07:11:11.641Z,73.60
2019-02-27T07:13:39.834Z,73.90
2019-02-27T07:16:08.583Z,73.20
2019-02-27T07:18:41.763Z,72.80
2019-02-27T07:21:09.798Z,71.90
2019-02-27T07:23:37.968Z,70.90
2019-02-27T07:26:06.051Z,69.90
2019-02-27T07:28:34.280Z,68.70
2019-02-27T07:31:02.478Z,67.80
2019-02-27T07:33:30.651Z,66.60
2019-02-27T07:36:03.171Z,66.30
2019-02-27T07:38:29.356Z,66.50
2019-02-27T07:40:57.627Z,66.50
2019-02-27T07:43:25.617Z,65.90
2019-02-27T07:45:54.438Z,64.60
2019-02-27T07:48:22.529Z,64.10
2019-02-27T07:50:50.712Z,62.00
2019-02-27T07:53:18.674Z,62.00
2019-02-27T07:55:47.481Z,60.10
2019-02-27T07:58:15.880Z,60.00
2019-02-27T08:00:44.030Z,59.50
2019-02-27T08:03:13.124Z,59.30
2019-02-27T08:05:42.195Z,58.80
2019-02-27T08:08:11.133Z,55.90
2019-02-27T08:10:41.192Z,55.60
2019-02-27T08:13:11.818Z,54.00
2019-02-27T08:15:40.300Z,53.20
2019-02-27T08:18:09.632Z,53.00
2019-02-27T08:20:37.699Z,52.40
2019-02-27T08:23:06.961Z,51.90
2019-02-27T08:25:38.052Z,52.30
2019-02-27T08:28:06.349Z,52.60
2019-02-27T08:30:34.789Z,52.00
2019-02-27T08:33:03.201Z,52.60
2019-02-27T08:35:32.181Z,52.60
2019-02-27T08:38:02.745Z,52.80
2019-02-27T08:40:30.891Z,52.20
2019-02-27T08:42:58.955Z,51.50
2019-02-27T08:45:27.697Z,51.40
2019-02-27T08:47:55.950Z,50.00
2019-02-27T08:50:24.111Z,49.70
2019-02-27T08:52:52.319Z,49.10
2019-02-27T08:55:22.824Z,48.00
2019-02-27T08:57:55.879Z,47.90
2019-02-27T09:00:23.399Z,47.50
2019-02-27T09:02:52.039Z,47.70
2019-02-27T09:05:20.983Z,47.30
2019-02-27T09:07:50.028Z,46.10
2019-02-27T09:10:19.348Z,46.40
2019-02-27T09:12:49.080Z,46.50
2019-02-27T09:15:18.167Z,45.40
2019-02-27T09:17:46.278Z,45.10
2019-02-27T09:20:19.244Z,45.80
2019-02-27T09:22:48.369Z,45.10
2019-02-27T09:25:16.754Z,44.90
2019-02-27T09:27:44.968Z,44.10
2019-02-27T09:30:15.276Z,43.40
2019-02-27T09:32:46.070Z,42.10
2019-02-27T09:35:16.839Z,42.20
2019-02-27T09:37:48.306Z,41.60
2019-02-27T09:40:17.465Z,41.70
2019-02-27T09:42:46.148Z,41.80
2019-02-27T09:45:29.143Z,40.60
2019-02-27T09:47:59.974Z,39.40
2019-02-27T09:50:34.613Z,37.60
2019-02-27T09:53:04.433Z,37.70
2019-02-27T09:55:33.128Z,36.70
2019-02-27T09:58:02.329Z,35.40
2019-02-27T10:00:52.886Z,35.50
2019-02-27T10:03:21.619Z,34.60
2019-02-27T10:05:50.093Z,35.30
2019-02-27T10:08:20.464Z,32.90
2019-02-27T10:10:49.015Z,33.20
2019-02-27T10:13:17.717Z,32.60
2019-02-27T10:15:46.060Z,32.20
2019-02-27T10:18:18.325Z,32.50
2019-02-27T10:20:45.795Z,31.30
2019-02-27T10:23:14.473Z,31.30
2019-02-27T10:25:43.589Z,31.40
2019-02-27T10:28:12.349Z,31.30
2019-02-27T10:30:40.463Z,30.00
2019-02-27T10:33:11.165Z,29.70
2019-02-27T10:35:38.588Z,29.70
2019-02-27T10:38:07.772Z,30.00
2019-02-27T10:40:36.411Z,29.90
2019-02-27T10:43:04.797Z,29.90
2019-02-27T10:45:33.085Z,29.70
2019-02-27T10:48:01.176Z,29.70
2019-02-27T10:50:29.299Z,29.40
2019-02-27T10:52:57.286Z,29.00
2019-02-27T10:55:26.846Z,29.60
2019-02-27T10:57:55.185Z,29.10
2019-02-27T11:00:28.586Z,28.90
2019-02-27T11:02:56.592Z,28.10
2019-02-27T11:05:25.182Z,28.10
2019-02-27T11:07:54.254Z,28.50
2019-02-27T11:10:23.417Z,28.40
2019-02-27T11:12:51.526Z,27.30
2019-02-27T11:15:19.774Z,27.50
2019-02-27T11:17:49.230Z,27.40
2019-02-27T11:20:20.845Z,27.20
2019-02-27T11:22:47.526Z,26.90
2019-02-27T11:25:22.343Z,26.20
2019-02-27T11:27:47.435Z,26.30
2019-02-27T11:30:22.519Z,25.70
2019-02-27T11:32:51.260Z,25.00
2019-02-27T11:35:22.062Z,25.00
2019-02-27T11:37:50.350Z,25.00
2019-02-27T11:40:20.238Z,24.30
2019-02-27T11:42:48.217Z,23.90
2019-02-27T11:45:16.092Z,23.20
2019-02-27T11:47:47.711Z,23.00
2019-02-27T11:50:14.684Z,22.50
2019-02-27T11:52:48.845Z,22.30
2019-02-27T11:55:15.575Z,22.10
2019-02-27T11:57:43.542Z,22.00
2019-02-27T12:00:20.227Z,21.70
2019-02-27T12:02:46.472Z,20.50
2019-02-27T12:05:15.124Z,20.40
2019-02-27T12:07:43.277Z,19.30
2019-02-27T12:10:15.134Z,20.60
2019-02-27T12:12:43.275Z,19.40
2019-02-27T12:15:12.907Z,18.60
2019-02-27T12:17:41.720Z,19.00
2019-02-27T12:20:10.362Z,20.40
2019-02-27T12:22:38.376Z,19.30
2019-02-27T12:25:07.333Z,19.60
2019-02-27T12:27:48.712Z,19.40
2019-02-27T12:30:11.041Z,19.00
2019-02-27T12:32:39.056Z,18.60
2019-02-27T12:35:11.480Z,18.40
2019-02-27T12:37:39.508Z,18.80
2019-02-27T12:40:10.079Z,18.60
2019-02-27T12:42:42.530Z,17.60
2019-02-27T12:45:12.268Z,17.80
2019-02-27T12:47:40.694Z,16.90
2019-02-27T12:50:11.520Z,16.20
2019-02-27T12:52:44.390Z,16.20
2019-02-27T12:55:09.628Z,16.80
2019-02-27T12:57:37.653Z,16.40
2019-02-27T13:00:09.024Z,16.00
2019-02-27T13:02:37.241Z,16.10
2019-02-27T13:05:06.718Z,16.00
2019-02-27T13:07:34.848Z,15.40
2019-02-27T13:10:04.232Z,16.00
2019-02-27T13:12:32.190Z,16.30
2019-02-27T13:15:00.358Z,15.70
2019-02-27T13:17:28.593Z,15.10
2019-02-27T13:19:56.519Z,15.10
2019-02-27T13:22:26.317Z,14.70
2019-02-27T13:24:54.408Z,14.40
2019-02-27T13:27:22.344Z,13.60
2019-02-27T13:29:52.198Z,14.00
2019-02-27T13:32:20.320Z,13.90
2019-02-27T13:34:49.090Z,15.10
2019-02-27T13:37:18.684Z,15.50
2019-02-27T13:39:46.771Z,15.80
2019-02-27T13:42:18.392Z,17.50
2019-02-27T13:44:44.740Z,17.20
2019-02-27T13:47:12.705Z,18.60
2019-02-27T13:49:40.848Z,17.50
2019-02-27T13:52:12.455Z,18.10
2019-02-27T13:54:38.972Z,17.40
2019-02-27T13:57:06.879Z,17.50
2019-02-27T13:59:35.884Z,17.20
2019-02-27T14:02:04.901Z,17.50
2019-02-27T14:04:32.902Z,16.80
2019-02-27T14:07:00.958Z,16.90
2019-02-27T14:09:29.021Z,17.10
2019-02-27T14:11:58.737Z,16.60
2019-02-27T14:14:27.230Z,17.10
2019-02-27T14:16:55.239Z,17.20
2019-02-27T14:19:23.873Z,17.30
2019-02-27T14:21:52.569Z,17.00
2019-02-27T14:24:21.359Z,16.70
2019-02-27T14:26:49.374Z,16.20
2019-02-27T14:29:17.285Z,16.50
2019-02-27T14:31:45.279Z,16.40
2019-02-27T14:34:13.290Z,16.20
2019-02-27T14:36:42.492Z,16.40
2019-02-27T14:39:13.139Z,16.20
2019-02-27T14:41:41.177Z,16.20
2019-02-27T14:44:09.443Z,16.20
2019-02-27T14:46:37.403Z,15.70
2019-02-27T14:49:05.381Z,15.50
2019-02-27T14:51:33.465Z,16.00
2019-02-27T14:54:01.584Z,15.20
2019-02-27T14:56:29.696Z,15.40
2019-02-27T14:58:57.643Z,15.60
2019-02-27T15:01:26.988Z,15.90
2019-02-27T15:03:55.241Z,15.20
2019-02-27T15:06:23.181Z,14.80
2019-02-27T15:08:57.735Z,15.40
2019-02-27T15:11:21.159Z,16.00
2019-02-27T15:13:49.276Z,15.10
2019-02-27T15:16:17.370Z,15.50
2019-02-27T15:18:45.373Z,14.70
2019-02-27T15:21:13.812Z,14.40
2019-02-27T15:23:42.039Z,13.20
2019-02-27T15:26:13.888Z,13.70
2019-02-27T15:28:41.692Z,12.80
2019-02-27T15:31:09.765Z,13.30
2019-02-27T15:33:39.062Z,12.70
2019-02-27T15:36:08.294Z,11.70
2019-02-27T15:38:37.567Z,10.80
2019-02-27T15:41:05.891Z,9.80
2019-02-27T15:43:34.153Z,9.30
2019-02-27T15:46:02.304Z,8.80
2019-02-27T15:48:30.388Z,8.90
2019-02-27T15:50:58.577Z,8.60
2019-02-27T15:53:26.575Z,8.30
2019-02-27T15:55:54.620Z,7.50
2019-02-27T15:58:25.334Z,7.10
2019-02-27T16:00:53.428Z,7.10
2019-02-27T16:03:22.944Z,7.30
2019-02-27T16:05:51.020Z,6.70
2019-02-27T16:08:20.275Z,6.40
2019-02-27T16:10:54.762Z,6.60
2019-02-27T16:13:19.119Z,7.20
2019-02-27T16:15:48.475Z,6.80
2019-02-27T16:18:16.923Z,6.70
2019-02-27T16:20:47.109Z,6.80
2019-02-27T16:23:15.106Z,7.20
2019-02-27T16:25:43.370Z,7.70
2019-02-27T16:28:14.103Z,8.70
2019-02-27T16:30:43.099Z,9.90
2019-02-27T16:33:11.174Z,10.00
2019-02-27T16:35:41.996Z,10.90
2019-02-27T16:38:09.702Z,11.90
2019-02-27T16:40:38.398Z,11.60
2019-02-27T16:43:06.630Z,12.20
2019-02-27T16:45:37.022Z,12.20
2019-02-27T16:48:05.613Z,12.50
2019-02-27T16:50:35.223Z,12.00
2019-02-27T16:53:03.284Z,12.60
2019-02-27T16:55:35.711Z,12.90
2019-02-27T16:58:02.024Z,13.60
2019-02-27T17:00:30.503Z,14.10
2019-02-27T17:02:58.719Z,14.20
2019-02-27T17:05:27.054Z,15.90
2019-02-27T17:08:00.690Z,15.00
2019-02-27T17:10:29.570Z,14.80
2019-02-27T17:12:57.928Z,15.20
2019-02-27T17:15:25.995Z,15.20
2019-02-27T17:17:54.314Z,15.60
2019-02-27T17:20:24.081Z,15.80
2019-02-27T17:22:52.469Z,15.40
2019-02-27T17:25:20.729Z,16.80
2019-02-27T17:27:50.887Z,17.70
2019-02-27T17:30:24.525Z,18.30
2019-02-27T17:32:52.903Z,19.10
2019-02-27T17:35:23.575Z,19.40
2019-02-27T17:37:51.371Z,20.30
2019-02-27T17:40:19.372Z,20.90
2019-02-27T17:42:53.211Z,22.00
2019-02-27T17:45:18.427Z,21.90
2019-02-27T17:47:46.584Z,21.20
2019-02-27T17:50:15.182Z,20.60
2019-02-27T17:52:43.207Z,20.70
2019-02-27T17:55:12.910Z,23.20
2019-02-27T17:57:40.977Z,22.50
2019-02-27T18:00:16.011Z,22.50
2019-02-27T18:02:43.685Z,23.60
2019-02-27T18:05:11.997Z,23.80
2019-02-27T18:07:40.251Z,24.40
2019-02-27T18:10:10.058Z,24.30
2019-02-27T18:12:38.330Z,24.60
2019-02-27T18:15:08.558Z,25.50
2019-02-27T18:17:36.904Z,25.30
2019-02-27T18:20:05.722Z,25.60
2019-02-27T18:22:34.046Z,25.70
2019-02-27T18:25:04.756Z,25.50
2019-02-27T18:27:32.186Z,25.10
2019-02-27T18:30:00.473Z,25.30
2019-02-27T18:32:28.728Z,26.00
2019-02-27T18:34:56.742Z,27.10
2019-02-27T18:37:24.905Z,26.70
2019-02-27T18:39:53.266Z,26.80
2019-02-27T18:42:21.387Z,26.40
2019-02-27T18:44:50.098Z,26.20
2019-02-27T18:47:18.124Z,25.90
2019-02-27T18:49:46.239Z,25.20
2019-02-27T18:52:21.404Z,24.60
2019-02-27T18:54:46.281Z,24.70
2019-02-27T18:57:14.477Z,25.10
2019-02-27T18:59:42.626Z,26.00
2019-02-27T19:02:10.716Z,25.80
2019-02-27T19:04:38.908Z,26.00
2019-02-27T19:07:08.030Z,26.90
2019-02-27T19:09:36.277Z,27.20
2019-02-27T19:12:04.772Z,27.20
2019-02-27T19:14:33.220Z,27.20
2019-02-27T19:17:01.486Z,27.20
2019-02-27T19:19:29.757Z,29.50
2019-02-27T19:21:58.097Z,30.60
2019-02-27T19:24:27.523Z,31.10
2019-02-27T19:26:56.005Z,29.90
2019-02-27T19:29:24.049Z,30.70
2019-02-27T19:31:52.242Z,31.10
2019-02-27T19:34:21.367Z,32.10
2019-02-27T19:36:49.610Z,31.60
2019-02-27T19:39:18.334Z,32.50
2019-02-27T19:41:48.121Z,32.40
2019-02-27T19:44:16.360Z,33.40
2019-02-27T19:46:47.453Z,33.20
2019-02-27T19:49:15.125Z,33.40
2019-02-27T19:51:45.089Z,34.00
2019-02-27T19:54:14.854Z,34.70
2019-02-27T19:56:43.480Z,34.90
2019-02-27T19:59:11.525Z,35.00
2019-02-27T20:01:46.257Z,35.40
2019-02-27T20:04:12.780Z,35.90
2019-02-27T20:06:42.149Z,36.10
2019-02-27T20:09:10.526Z,36.50
2019-02-27T20:11:41.033Z,36.90
2019-02-27T20:14:11.777Z,37.40
2019-02-27T20:16:41.202Z,37.80
2019-02-27T20:19:09.568Z,38.10
2019-02-27T20:21:44.111Z,38.20
2019-02-27T20:24:14.463Z,38.40
2019-02-27T20:26:44.534Z,38.60
2019-02-27T20:29:13.514Z,38.90
2019-02-27T20:31:41.664Z,39.30
2019-02-27T20:34:11.577Z,39.40
2019-02-27T20:36:40.998Z,39.40
2019-02-27T20:39:10.088Z,39.40
2019-02-27T20:41:43.907Z,39.70
2019-02-27T20:44:13.978Z,39.90
2019-02-27T20:46:42.081Z,40.20
2019-02-27T20:49:14.031Z,40.20
2019-02-27T20:51:43.443Z,40.50
2019-02-27T20:54:11.914Z,40.80
2019-02-27T20:56:40.818Z,41.30
2019-02-27T20:59:12.258Z,41.90
2019-02-27T21:01:46.681Z,42.60
2019-02-27T21:04:11.710Z,43.40
2019-02-27T21:06:40.785Z,44.20
2019-02-27T21:09:11.782Z,43.90
2019-02-27T21:11:40.099Z,44.20
2019-02-27T21:14:09.197Z,44.40
2019-02-27T21:16:40.196Z,44.50
2019-02-27T21:19:09.751Z,45.20
2019-02-27T21:21:38.338Z,46.00
2019-02-27T21:24:06.762Z,46.20
2019-02-27T21:26:38.000Z,45.70
2019-02-27T21:29:08.614Z,46.00
2019-02-27T21:31:36.496Z,45.50
2019-02-27T21:34:04.934Z,44.80
2019-02-27T21:36:36.245Z,44.90
2019-02-27T21:39:04.786Z,44.30
2019-02-27T21:41:34.865Z,44.30
2019-02-27T21:44:06.497Z,44.50
2019-02-27T21:46:34.715Z,44.50
2019-02-27T21:49:02.961Z,43.90
2019-02-27T21:51:31.650Z,44.00
2019-02-27T21:54:00.357Z,44.40
2019-02-27T21:56:30.189Z,44.60
2019-02-27T21:58:58.664Z,44.70
2019-02-27T22:01:26.791Z,45.00
2019-02-27T22:03:55.206Z,45.20
2019-02-27T22:06:24.745Z,45.30
2019-02-27T22:08:53.287Z,45.60
2019-02-27T22:11:24.209Z,45.70
2019-02-27T22:13:52.017Z,46.00
2019-02-27T22:16:20.131Z,46.10
2019-02-27T22:18:48.159Z,46.30
2019-02-27T22:21:17.276Z,46.80
2019-02-27T22:23:45.997Z,48.00
2019-02-27T22:26:14.423Z,48.10
2019-02-27T22:28:42.581Z,48.20
2019-02-27T22:31:10.810Z,48.00
2019-02-27T22:33:38.882Z,47.70
2019-02-27T22:36:12.355Z,47.80
2019-02-27T22:38:36.975Z,47.70
2019-02-27T22:41:05.142Z,47.90
2019-02-27T22:43:35.155Z,47.70
2019-02-27T22:46:03.321Z,47.90
2019-02-27T22:48:32.356Z,48.00
2019-02-27T22:51:00.534Z,48.20
2019-02-27T22:53:28.915Z,47.80
2019-02-27T22:55:57.826Z,47.50
2019-02-27T22:58:27.432Z,47.90
2019-02-27T23:01:10.174Z,47.70
2019-02-27T23:03:59.861Z,47.80
2019-02-27T23:06:28.071Z,47.70
2019-02-27T23:09:00.160Z,47.80
2019-02-27T23:11:28.479Z,48.10
2019-02-27T23:13:56.621Z,48.10
2019-02-27T23:16:24.547Z,47.90
2019-02-27T23:18:52.693Z,48.20
2019-02-27T23:21:20.785Z,48.50
2019-02-27T23:23:48.931Z,48.60
2019-02-27T23:26:19.818Z,48.80
2019-02-27T23:28:48.859Z,48.60
2019-02-27T23:31:22.384Z,48.60
2019-02-27T23:33:48.259Z,48.70
2019-02-27T23:36:16.468Z,49.00
2019-02-27T23:38:45.256Z,49.10
2019-02-27T23:41:14.250Z,49.20
2019-02-27T23:43:42.168Z,49.10
2019-02-27T23:46:10.273Z,49.40
2019-02-27T23:48:41.569Z,49.30
2019-02-27T23:51:09.569Z,49.50
2019-02-27T23:53:37.594Z,49.40
2019-02-27T23:56:05.669Z,49.70
2019-02-27T23:58:35.626Z,50.00
